Carlos Casares, Argentina
Current Conditions -  °F | °C
As of 2:00 AM on Thursday 27 Nov 2014 (Local Time) from SAEZ Reporting Station
Clear Clear  
Wind Chill: 57°   Ceiling: Unl
Heat Index: 57°   Visibility: 6mi
Dew Point: 55°   Wind: 2mph
Humidity: 94%   Direction: 90°E
Pressure: 29.97"   Gusts: NA
Location:  35.63°S, 61.35°W
Report Text: SAEZ 270500Z 09002KT CAVOK 14/13 Q1015
Loading
Personal Weather Stations






























Interactive Weather Map New forecast layout! Learn more

10-Day Weather Forecast

Advertisements
Track Severe Weather on mobile